LNZ weather

Linz Hörsching Airport
Linz, Upper Austria, Austria

Public forecast

Using degrees Celsius for public forecast. Weather courtesy of forecast.io.

METAR (pilot weather report)

Retrieved 2019/03/23 10:20 UTC (52 seconds ago):

LOWL 231020Z VRB02KT CAVOK 13/04 Q1028 NOSIG

TAF (pilot weather forecast)

Retrieved 2019/03/23 06:21 UTC (4 hours ago):

TAF LOWL 230515Z 2306/2406 VRB02KT CAVOK TX19/2315Z TN03/2306Z PROB30 TEMPO 2306/2307 1200 BCFG NSC BECMG 2311/2313 27004KT TEMPO 2403/2406 0800 BCFG SCT045